DAUH/HME METAR and TAF weather

Enter ICAO airport designator
Station Type Date Time Source
DAUH METAR 2023/02/05 13:00 UTC NOAA

DAUH 051300Z 32003KT CAVOK 17/02 Q1026


Station Type Date Time Source
DAUH Decoded METAR 2023/02/05 13:00 UTC NOAA

Hassi-Messaoud, Algeria (DAUH) 31-40N 006-09E 142M
Feb 05, 2023 - 08:00 AM EST / 2023.02.05 1300 UTC
Wind: from the NW (320 degrees) at 3 MPH (3 KT):0
Visibility: greater than 7 mile(s):0
Temperature: 62 F (17 C)
Dew Point: 35 F (2 C)
Relative Humidity: 36%
Pressure (altimeter): 30.30 in. Hg (1026 hPa)
ob: DAUH 051300Z 32003KT CAVOK 17/02 Q1026
cycle: 13

Station Type Date Time Source
DAUH TAF 2023/02/05 12:33 UTC NOAA

TAF DAUH 051100Z 0512/0612 VRB02KT CAVOK

Example: see airport list